sensor_id;sensor_type;location;lat;lon;timestamp;P1;durP1;ratioP1;P2;durP2;ratioP2
55784;SDS011;41709;52.536;5.688;2022-07-01T00:01:24;9.77;;;7.32;;
55784;SDS011;41709;52.536;5.688;2022-07-01T00:03:50;10.88;;;6.50;;
55784;SDS011;41709;52.536;5.688;2022-07-01T00:06:19;7.53;;;5.65;;
55784;SDS011;41709;52.536;5.688;2022-07-01T00:08:46;11.82;;;5.65;;
55784;SDS011;41709;52.536;5.688;2022-07-01T00:11:12;7.13;;;5.55;;
55784;SDS011;41709;52.536;5.688;2022-07-01T00:13:38;9.20;;;5.22;;
55784;SDS011;41709;52.536;5.688;2022-07-01T00:16:03;6.22;;;5.35;;
55784;SDS011;41709;52.536;5.688;2022-07-01T00:18:29;8.20;;;5.45;;
55784;SDS011;41709;52.536;5.688;2022-07-01T00:20:55;9.88;;;5.90;;
55784;SDS011;41709;52.536;5.688;2022-07-01T00:23:21;7.13;;;5.10;;
55784;SDS011;41709;52.536;5.688;2022-07-01T00:25:47;8.15;;;5.72;;
55784;SDS011;41709;52.536;5.688;2022-07-01T00:28:12;5.68;;;5.10;;
55784;SDS011;41709;52.536;5.688;2022-07-01T00:30:38;6.00;;;4.25;;
55784;SDS011;41709;52.536;5.688;2022-07-01T00:33:04;6.55;;;3.78;;
55784;SDS011;41709;52.536;5.688;2022-07-01T00:35:30;6.30;;;3.85;;
55784;SDS011;41709;52.536;5.688;2022-07-01T00:37:55;5.57;;;3.33;;
55784;SDS011;41709;52.536;5.688;2022-07-01T00:40:22;5.63;;;3.53;;
55784;SDS011;41709;52.536;5.688;2022-07-01T00:42:48;4.18;;;2.97;;
55784;SDS011;41709;52.536;5.688;2022-07-01T00:45:14;6.13;;;2.88;;
55784;SDS011;41709;52.536;5.688;2022-07-01T00:47:40;3.15;;;2.78;;
55784;SDS011;41709;52.536;5.688;2022-07-01T00:50:06;4.05;;;2.80;;
55784;SDS011;41709;52.536;5.688;2022-07-01T00:52:34;4.65;;;3.10;;
55784;SDS011;41709;52.536;5.688;2022-07-01T00:55:02;4.20;;;2.67;;
55784;SDS011;41709;52.536;5.688;2022-07-01T00:57:33;5.45;;;3.28;;
55784;SDS011;41709;52.536;5.688;2022-07-01T01:00:03;4.07;;;3.42;;
55784;SDS011;41709;52.536;5.688;2022-07-01T01:02:34;8.38;;;3.33;;
55784;SDS011;41709;52.536;5.688;2022-07-01T01:05:00;7.05;;;4.75;;
55784;SDS011;41709;52.536;5.688;2022-07-01T01:07:27;5.38;;;3.60;;
55784;SDS011;41709;52.536;5.688;2022-07-01T01:09:54;4.13;;;3.33;;
55784;SDS011;41709;52.536;5.688;2022-07-01T01:12:20;4.78;;;3.63;;
55784;SDS011;41709;52.536;5.688;2022-07-01T01:14:47;5.40;;;3.97;;
55784;SDS011;41709;52.536;5.688;2022-07-01T01:17:14;7.38;;;4.38;;
55784;SDS011;41709;52.536;5.688;2022-07-01T01:19:41;5.55;;;4.22;;
55784;SDS011;41709;52.536;5.688;2022-07-01T01:22:08;6.03;;;4.50;;
55784;SDS011;41709;52.536;5.688;2022-07-01T01:24:34;6.38;;;4.90;;
55784;SDS011;41709;52.536;5.688;2022-07-01T01:27:02;7.40;;;5.72;;
55784;SDS011;41709;52.536;5.688;2022-07-01T01:29:29;8.25;;;5.45;;
55784;SDS011;41709;52.536;5.688;2022-07-01T01:31:54;6.57;;;5.47;;
55784;SDS011;41709;52.536;5.688;2022-07-01T01:34:20;8.93;;;5.63;;
55784;SDS011;41709;52.536;5.688;2022-07-01T01:36:46;8.02;;;5.60;;
55784;SDS011;41709;52.536;5.688;2022-07-01T01:39:11;6.53;;;5.45;;
55784;SDS011;41709;52.536;5.688;2022-07-01T01:41:39;6.50;;;5.63;;
55784;SDS011;41709;52.536;5.688;2022-07-01T01:44:05;9.10;;;5.95;;
55784;SDS011;41709;52.536;5.688;2022-07-01T01:46:30;7.75;;;6.68;;
55784;SDS011;41709;52.536;5.688;2022-07-01T01:48:56;8.25;;;6.10;;
55784;SDS011;41709;52.536;5.688;2022-07-01T01:51:22;8.07;;;6.13;;
55784;SDS011;41709;52.536;5.688;2022-07-01T01:53:48;9.07;;;7.43;;
55784;SDS011;41709;52.536;5.688;2022-07-01T01:56:14;12.40;;;7.10;;
55784;SDS011;41709;52.536;5.688;2022-07-01T01:58:39;10.88;;;7.82;;
55784;SDS011;41709;52.536;5.688;2022-07-01T02:01:09;9.98;;;8.18;;
55784;SDS011;41709;52.536;5.688;2022-07-01T02:03:35;10.38;;;8.43;;
55784;SDS011;41709;52.536;5.688;2022-07-01T02:06:02;11.10;;;8.85;;
55784;SDS011;41709;52.536;5.688;2022-07-01T02:08:29;11.18;;;8.52;;
55784;SDS011;41709;52.536;5.688;2022-07-01T02:10:55;12.93;;;9.68;;
55784;SDS011;41709;52.536;5.688;2022-07-01T02:13:21;12.27;;;10.02;;
55784;SDS011;41709;52.536;5.688;2022-07-01T02:15:46;14.40;;;11.57;;
55784;SDS011;41709;52.536;5.688;2022-07-01T02:18:14;14.65;;;10.88;;
55784;SDS011;41709;52.536;5.688;2022-07-01T02:20:40;16.58;;;11.48;;
55784;SDS011;41709;52.536;5.688;2022-07-01T02:23:06;14.02;;;12.23;;
55784;SDS011;41709;52.536;5.688;2022-07-01T02:25:32;13.93;;;12.50;;
55784;SDS011;41709;52.536;5.688;2022-07-01T02:27:58;19.05;;;14.02;;
55784;SDS011;41709;52.536;5.688;2022-07-01T02:30:24;19.20;;;14.30;;
55784;SDS011;41709;52.536;5.688;2022-07-01T02:32:50;18.90;;;14.05;;
55784;SDS011;41709;52.536;5.688;2022-07-01T02:35:16;16.58;;;14.77;;
55784;SDS011;41709;52.536;5.688;2022-07-01T02:37:41;21.23;;;15.90;;
55784;SDS011;41709;52.536;5.688;2022-07-01T02:40:07;19.70;;;15.48;;
55784;SDS011;41709;52.536;5.688;2022-07-01T02:42:34;18.00;;;15.63;;
55784;SDS011;41709;52.536;5.688;2022-07-01T02:45:01;18.35;;;15.57;;
55784;SDS011;41709;52.536;5.688;2022-07-01T02:47:35;19.45;;;16.58;;
55784;SDS011;41709;52.536;5.688;2022-07-01T02:50:02;21.42;;;16.65;;
55784;SDS011;41709;52.536;5.688;2022-07-01T02:52:29;21.63;;;16.77;;
55784;SDS011;41709;52.536;5.688;2022-07-01T02:54:54;25.63;;;16.80;;
55784;SDS011;41709;52.536;5.688;2022-07-01T02:57:20;20.63;;;16.27;;
55784;SDS011;41709;52.536;5.688;2022-07-01T02:59:46;20.58;;;17.17;;
55784;SDS011;41709;52.536;5.688;2022-07-01T03:02:12;21.58;;;17.38;;
55784;SDS011;41709;52.536;5.688;2022-07-01T03:04:37;21.70;;;17.02;;
55784;SDS011;41709;52.536;5.688;2022-07-01T03:07:03;22.35;;;17.05;;
55784;SDS011;41709;52.536;5.688;2022-07-01T03:09:28;22.83;;;17.75;;
55784;SDS011;41709;52.536;5.688;2022-07-01T03:11:54;24.17;;;18.60;;
55784;SDS011;41709;52.536;5.688;2022-07-01T03:14:20;25.50;;;19.85;;
55784;SDS011;41709;52.536;5.688;2022-07-01T03:16:45;26.15;;;19.05;;
55784;SDS011;41709;52.536;5.688;2022-07-01T03:19:14;23.27;;;19.73;;
55784;SDS011;41709;52.536;5.688;2022-07-01T03:21:40;27.55;;;19.33;;
55784;SDS011;41709;52.536;5.688;2022-07-01T03:24:06;24.85;;;20.13;;
55784;SDS011;41709;52.536;5.688;2022-07-01T03:26:31;24.73;;;19.73;;
55784;SDS011;41709;52.536;5.688;2022-07-01T03:28:57;27.73;;;20.65;;
55784;SDS011;41709;52.536;5.688;2022-07-01T03:31:22;25.55;;;19.30;;
55784;SDS011;41709;52.536;5.688;2022-07-01T03:33:48;25.50;;;20.65;;
55784;SDS011;41709;52.536;5.688;2022-07-01T03:36:14;27.02;;;22.55;;
55784;SDS011;41709;52.536;5.688;2022-07-01T03:38:39;28.55;;;21.50;;
55784;SDS011;41709;52.536;5.688;2022-07-01T03:41:05;26.92;;;21.50;;
55784;SDS011;41709;52.536;5.688;2022-07-01T03:43:31;24.63;;;20.25;;
55784;SDS011;41709;52.536;5.688;2022-07-01T03:45:56;28.00;;;21.50;;
55784;SDS011;41709;52.536;5.688;2022-07-01T03:48:22;26.48;;;21.02;;
55784;SDS011;41709;52.536;5.688;2022-07-01T03:50:47;27.45;;;21.70;;
55784;SDS011;41709;52.536;5.688;2022-07-01T03:53:13;33.28;;;22.85;;
55784;SDS011;41709;52.536;5.688;2022-07-01T03:55:57;27.52;;;21.33;;
55784;SDS011;41709;52.536;5.688;2022-07-01T03:58:23;32.05;;;23.25;;
55784;SDS011;41709;52.536;5.688;2022-07-01T04:00:48;24.60;;;21.40;;
55784;SDS011;41709;52.536;5.688;2022-07-01T04:03:14;28.38;;;21.45;;
55784;SDS011;41709;52.536;5.688;2022-07-01T04:05:39;26.13;;;20.65;;
55784;SDS011;41709;52.536;5.688;2022-07-01T04:08:06;28.33;;;21.25;;
55784;SDS011;41709;52.536;5.688;2022-07-01T04:10:33;24.90;;;21.63;;
55784;SDS011;41709;52.536;5.688;2022-07-01T04:12:59;26.83;;;20.60;;
55784;SDS011;41709;52.536;5.688;2022-07-01T04:15:26;29.92;;;20.58;;
55784;SDS011;41709;52.536;5.688;2022-07-01T04:17:51;23.90;;;19.52;;
55784;SDS011;41709;52.536;5.688;2022-07-01T04:20:17;26.08;;;20.20;;
55784;SDS011;41709;52.536;5.688;2022-07-01T04:22:43;25.35;;;20.55;;
55784;SDS011;41709;52.536;5.688;2022-07-01T04:25:08;25.02;;;19.38;;
55784;SDS011;41709;52.536;5.688;2022-07-01T04:27:34;24.05;;;18.23;;
55784;SDS011;41709;52.536;5.688;2022-07-01T04:29:59;24.90;;;19.60;;
55784;SDS011;41709;52.536;5.688;2022-07-01T04:32:27;24.40;;;20.17;;
55784;SDS011;41709;52.536;5.688;2022-07-01T04:34:53;24.90;;;19.42;;
55784;SDS011;41709;52.536;5.688;2022-07-01T04:37:19;24.23;;;19.27;;
55784;SDS011;41709;52.536;5.688;2022-07-01T04:39:44;24.63;;;18.15;;
55784;SDS011;41709;52.536;5.688;2022-07-01T04:42:10;25.55;;;18.65;;
55784;SDS011;41709;52.536;5.688;2022-07-01T04:44:36;22.23;;;18.17;;
55784;SDS011;41709;52.536;5.688;2022-07-01T04:47:03;24.75;;;18.85;;
55784;SDS011;41709;52.536;5.688;2022-07-01T04:49:29;22.02;;;18.10;;
55784;SDS011;41709;52.536;5.688;2022-07-01T04:51:56;21.90;;;17.67;;
55784;SDS011;41709;52.536;5.688;2022-07-01T04:54:22;22.23;;;17.70;;
55784;SDS011;41709;52.536;5.688;2022-07-01T04:56:49;23.63;;;17.50;;
55784;SDS011;41709;52.536;5.688;2022-07-01T04:59:15;21.48;;;16.77;;
55784;SDS011;41709;52.536;5.688;2022-07-01T05:01:42;19.15;;;16.40;;
55784;SDS011;41709;52.536;5.688;2022-07-01T05:04:08;21.08;;;16.55;;
55784;SDS011;41709;52.536;5.688;2022-07-01T05:06:34;20.85;;;16.23;;
55784;SDS011;41709;52.536;5.688;2022-07-01T05:09:00;25.05;;;14.98;;
55784;SDS011;41709;52.536;5.688;2022-07-01T05:11:26;20.33;;;16.10;;
55784;SDS011;41709;52.536;5.688;2022-07-01T05:13:51;18.25;;;15.70;;
55784;SDS011;41709;52.536;5.688;2022-07-01T05:16:17;21.45;;;14.63;;
55784;SDS011;41709;52.536;5.688;2022-07-01T05:18:43;20.33;;;15.75;;
55784;SDS011;41709;52.536;5.688;2022-07-01T05:21:27;22.00;;;15.40;;
55784;SDS011;41709;52.536;5.688;2022-07-01T05:24:11;20.00;;;15.80;;
55784;SDS011;41709;52.536;5.688;2022-07-01T05:26:37;20.95;;;16.48;;
55784;SDS011;41709;52.536;5.688;2022-07-01T05:29:02;20.98;;;15.05;;
55784;SDS011;41709;52.536;5.688;2022-07-01T05:31:28;23.70;;;16.25;;
55784;SDS011;41709;52.536;5.688;2022-07-01T05:33:54;23.23;;;17.13;;
55784;SDS011;41709;52.536;5.688;2022-07-01T05:36:20;19.02;;;16.10;;
55784;SDS011;41709;52.536;5.688;2022-07-01T05:38:45;20.05;;;15.32;;
55784;SDS011;41709;52.536;5.688;2022-07-01T05:41:12;23.70;;;17.77;;
55784;SDS011;41709;52.536;5.688;2022-07-01T05:43:37;21.42;;;15.90;;
55784;SDS011;41709;52.536;5.688;2022-07-01T05:46:03;21.17;;;16.38;;
55784;SDS011;41709;52.536;5.688;2022-07-01T05:48:28;22.73;;;17.52;;
55784;SDS011;41709;52.536;5.688;2022-07-01T05:50:54;20.95;;;16.60;;
55784;SDS011;41709;52.536;5.688;2022-07-01T05:53:20;22.13;;;16.55;;
55784;SDS011;41709;52.536;5.688;2022-07-01T05:55:46;20.92;;;17.27;;
55784;SDS011;41709;52.536;5.688;2022-07-01T05:58:11;22.75;;;18.73;;
55784;SDS011;41709;52.536;5.688;2022-07-01T06:00:38;21.63;;;17.60;;
55784;SDS011;41709;52.536;5.688;2022-07-01T06:03:06;22.70;;;17.15;;
55784;SDS011;41709;52.536;5.688;2022-07-01T06:05:39;22.20;;;17.60;;
55784;SDS011;41709;52.536;5.688;2022-07-01T06:08:05;22.60;;;17.85;;
55784;SDS011;41709;52.536;5.688;2022-07-01T06:10:32;24.40;;;18.45;;
55784;SDS011;41709;52.536;5.688;2022-07-01T06:12:58;24.38;;;18.23;;
55784;SDS011;41709;52.536;5.688;2022-07-01T06:15:24;23.60;;;18.30;;
55784;SDS011;41709;52.536;5.688;2022-07-01T06:17:49;24.52;;;18.90;;
55784;SDS011;41709;52.536;5.688;2022-07-01T06:20:16;23.08;;;16.77;;
55784;SDS011;41709;52.536;5.688;2022-07-01T06:22:42;25.58;;;17.83;;
55784;SDS011;41709;52.536;5.688;2022-07-01T06:25:08;23.27;;;17.30;;
55784;SDS011;41709;52.536;5.688;2022-07-01T06:27:43;25.38;;;17.65;;
55784;SDS011;41709;52.536;5.688;2022-07-01T06:30:10;24.75;;;17.42;;
55784;SDS011;41709;52.536;5.688;2022-07-01T06:32:37;22.73;;;18.27;;
55784;SDS011;41709;52.536;5.688;2022-07-01T06:35:03;19.42;;;16.20;;
55784;SDS011;41709;52.536;5.688;2022-07-01T06:37:29;25.33;;;17.55;;
55784;SDS011;41709;52.536;5.688;2022-07-01T06:39:58;21.30;;;16.25;;
55784;SDS011;41709;52.536;5.688;2022-07-01T06:42:33;22.85;;;17.45;;
55784;SDS011;41709;52.536;5.688;2022-07-01T06:44:59;22.60;;;15.65;;
55784;SDS011;41709;52.536;5.688;2022-07-01T06:47:25;24.92;;;17.17;;
55784;SDS011;41709;52.536;5.688;2022-07-01T06:49:50;19.63;;;16.15;;
55784;SDS011;41709;52.536;5.688;2022-07-01T06:52:16;23.35;;;17.15;;
55784;SDS011;41709;52.536;5.688;2022-07-01T06:54:42;23.08;;;17.90;;
55784;SDS011;41709;52.536;5.688;2022-07-01T06:57:07;23.20;;;18.40;;
55784;SDS011;41709;52.536;5.688;2022-07-01T06:59:33;21.35;;;17.20;;
55784;SDS011;41709;52.536;5.688;2022-07-01T07:01:59;24.25;;;17.65;;
55784;SDS011;41709;52.536;5.688;2022-07-01T07:04:24;25.75;;;18.02;;
55784;SDS011;41709;52.536;5.688;2022-07-01T07:06:50;23.48;;;17.08;;
55784;SDS011;41709;52.536;5.688;2022-07-01T07:09:16;21.88;;;18.23;;
55784;SDS011;41709;52.536;5.688;2022-07-01T07:11:41;21.90;;;16.13;;
55784;SDS011;41709;52.536;5.688;2022-07-01T07:14:07;21.88;;;16.25;;
55784;SDS011;41709;52.536;5.688;2022-07-01T07:16:32;20.15;;;16.17;;
55784;SDS011;41709;52.536;5.688;2022-07-01T07:18:58;21.40;;;15.90;;
55784;SDS011;41709;52.536;5.688;2022-07-01T07:21:24;20.63;;;15.05;;
55784;SDS011;41709;52.536;5.688;2022-07-01T07:23:49;20.42;;;15.98;;
55784;SDS011;41709;52.536;5.688;2022-07-01T07:26:15;18.83;;;14.40;;
55784;SDS011;41709;52.536;5.688;2022-07-01T07:28:41;18.80;;;15.02;;
55784;SDS011;41709;52.536;5.688;2022-07-01T07:31:06;20.13;;;13.80;;
55784;SDS011;41709;52.536;5.688;2022-07-01T07:33:32;17.92;;;14.02;;
55784;SDS011;41709;52.536;5.688;2022-07-01T07:35:57;20.00;;;14.10;;
55784;SDS011;41709;52.536;5.688;2022-07-01T07:38:23;19.13;;;13.20;;
55784;SDS011;41709;52.536;5.688;2022-07-01T07:40:48;16.88;;;12.20;;
55784;SDS011;41709;52.536;5.688;2022-07-01T07:43:14;16.67;;;12.02;;
55784;SDS011;41709;52.536;5.688;2022-07-01T07:45:39;15.20;;;12.68;;
55784;SDS011;41709;52.536;5.688;2022-07-01T07:48:05;17.58;;;12.68;;
55784;SDS011;41709;52.536;5.688;2022-07-01T07:50:31;15.75;;;13.23;;
55784;SDS011;41709;52.536;5.688;2022-07-01T07:52:57;16.30;;;12.50;;
55784;SDS011;41709;52.536;5.688;2022-07-01T07:55:23;20.02;;;12.13;;
55784;SDS011;41709;52.536;5.688;2022-07-01T07:57:48;16.23;;;11.50;;
55784;SDS011;41709;52.536;5.688;2022-07-01T08:00:14;15.05;;;10.50;;
55784;SDS011;41709;52.536;5.688;2022-07-01T08:02:40;13.13;;;9.80;;
55784;SDS011;41709;52.536;5.688;2022-07-01T08:05:07;10.32;;;9.15;;
55784;SDS011;41709;52.536;5.688;2022-07-01T08:07:35;18.40;;;10.30;;
55784;SDS011;41709;52.536;5.688;2022-07-01T08:10:02;9.70;;;8.18;;
55784;SDS011;41709;52.536;5.688;2022-07-01T08:12:29;12.85;;;8.32;;
55784;SDS011;41709;52.536;5.688;2022-07-01T08:14:54;13.50;;;7.40;;
55784;SDS011;41709;52.536;5.688;2022-07-01T08:17:20;9.77;;;6.68;;
55784;SDS011;41709;52.536;5.688;2022-07-01T08:19:45;9.65;;;6.20;;
55784;SDS011;41709;52.536;5.688;2022-07-01T08:22:11;7.15;;;5.30;;
55784;SDS011;41709;52.536;5.688;2022-07-01T08:24:36;10.10;;;5.97;;
55784;SDS011;41709;52.536;5.688;2022-07-01T08:27:02;10.07;;;5.65;;
55784;SDS011;41709;52.536;5.688;2022-07-01T08:29:28;13.73;;;6.63;;
55784;SDS011;41709;52.536;5.688;2022-07-01T08:31:53;10.90;;;4.22;;
55784;SDS011;41709;52.536;5.688;2022-07-01T08:34:19;5.05;;;3.65;;
55784;SDS011;41709;52.536;5.688;2022-07-01T08:36:44;6.68;;;3.95;;
55784;SDS011;41709;52.536;5.688;2022-07-01T08:39:10;7.00;;;4.25;;
55784;SDS011;41709;52.536;5.688;2022-07-01T08:41:35;6.55;;;3.67;;
55784;SDS011;41709;52.536;5.688;2022-07-01T08:44:01;8.57;;;3.55;;
55784;SDS011;41709;52.536;5.688;2022-07-01T08:46:27;5.63;;;3.67;;
55784;SDS011;41709;52.536;5.688;2022-07-01T08:48:53;10.07;;;3.95;;
55784;SDS011;41709;52.536;5.688;2022-07-01T08:51:18;8.90;;;3.20;;
55784;SDS011;41709;52.536;5.688;2022-07-01T08:53:44;6.50;;;2.90;;
55784;SDS011;41709;52.536;5.688;2022-07-01T08:56:10;4.75;;;2.45;;
55784;SDS011;41709;52.536;5.688;2022-07-01T08:58:54;5.90;;;2.30;;
55784;SDS011;41709;52.536;5.688;2022-07-01T09:01:21;4.57;;;1.90;;
55784;SDS011;41709;52.536;5.688;2022-07-01T09:03:50;3.72;;;1.80;;
55784;SDS011;41709;52.536;5.688;2022-07-01T09:06:25;6.57;;;1.75;;
55784;SDS011;41709;52.536;5.688;2022-07-01T09:08:51;4.00;;;1.60;;
55784;SDS011;41709;52.536;5.688;2022-07-01T09:11:18;1.88;;;1.25;;
55784;SDS011;41709;52.536;5.688;2022-07-01T09:14:04;4.20;;;1.40;;
55784;SDS011;41709;52.536;5.688;2022-07-01T09:16:47;8.40;;;1.58;;
55784;SDS011;41709;52.536;5.688;2022-07-01T09:19:15;11.95;;;1.95;;
55784;SDS011;41709;52.536;5.688;2022-07-01T09:21:41;3.50;;;1.30;;
55784;SDS011;41709;52.536;5.688;2022-07-01T09:24:27;4.32;;;1.40;;
55784;SDS011;41709;52.536;5.688;2022-07-01T09:27:07;3.05;;;1.15;;
55784;SDS011;41709;52.536;5.688;2022-07-01T09:29:39;4.95;;;1.20;;
55784;SDS011;41709;52.536;5.688;2022-07-01T09:32:07;2.67;;;0.85;;
55784;SDS011;41709;52.536;5.688;2022-07-01T09:34:55;5.10;;;0.93;;
55784;SDS011;41709;52.536;5.688;2022-07-01T09:37:21;7.10;;;1.00;;
55784;SDS011;41709;52.536;5.688;2022-07-01T09:39:48;3.97;;;1.25;;
55784;SDS011;41709;52.536;5.688;2022-07-01T09:42:15;3.50;;;0.70;;
55784;SDS011;41709;52.536;5.688;2022-07-01T09:44:56;4.78;;;0.85;;
55784;SDS011;41709;52.536;5.688;2022-07-01T09:47:27;4.95;;;1.55;;
55784;SDS011;41709;52.536;5.688;2022-07-01T09:49:54;5.03;;;0.90;;
55784;SDS011;41709;52.536;5.688;2022-07-01T09:52:20;4.55;;;0.95;;
55784;SDS011;41709;52.536;5.688;2022-07-01T09:54:47;4.65;;;1.00;;
55784;SDS011;41709;52.536;5.688;2022-07-01T09:57:14;4.65;;;1.05;;
55784;SDS011;41709;52.536;5.688;2022-07-01T09:59:40;5.25;;;1.00;;
55784;SDS011;41709;52.536;5.688;2022-07-01T10:02:07;3.35;;;1.00;;
55784;SDS011;41709;52.536;5.688;2022-07-01T10:04:34;4.97;;;1.08;;
55784;SDS011;41709;52.536;5.688;2022-07-01T10:07:52;3.95;;;0.75;;
55784;SDS011;41709;52.536;5.688;2022-07-01T10:12:43;4.38;;;0.93;;
55784;SDS011;41709;52.536;5.688;2022-07-01T10:15:14;3.65;;;0.70;;
55784;SDS011;41709;52.536;5.688;2022-07-01T10:17:44;4.70;;;1.20;;
55784;SDS011;41709;52.536;5.688;2022-07-01T10:20:12;6.45;;;0.60;;
55784;SDS011;41709;52.536;5.688;2022-07-01T10:22:40;4.95;;;0.93;;
55784;SDS011;41709;52.536;5.688;2022-07-01T10:31:08;3.50;;;0.60;;
55784;SDS011;41709;52.536;5.688;2022-07-01T10:44:21;4.50;;;0.70;;
55784;SDS011;41709;52.536;5.688;2022-07-01T10:52:07;2.90;;;0.82;;
55784;SDS011;41709;52.536;5.688;2022-07-01T10:59:40;4.57;;;1.00;;
55784;SDS011;41709;52.536;5.688;2022-07-01T11:02:12;3.00;;;0.77;;
55784;SDS011;41709;52.536;5.688;2022-07-01T11:04:40;2.13;;;0.60;;
55784;SDS011;41709;52.536;5.688;2022-07-01T11:07:07;3.03;;;0.50;;
55784;SDS011;41709;52.536;5.688;2022-07-01T11:09:33;5.50;;;1.10;;
55784;SDS011;41709;52.536;5.688;2022-07-01T11:11:59;8.07;;;0.60;;
55784;SDS011;41709;52.536;5.688;2022-07-01T11:14:25;1.98;;;0.45;;
55784;SDS011;41709;52.536;5.688;2022-07-01T11:16:51;2.63;;;0.47;;
55784;SDS011;41709;52.536;5.688;2022-07-01T11:19:17;3.08;;;0.60;;
55784;SDS011;41709;52.536;5.688;2022-07-01T11:21:50;2.95;;;0.50;;
55784;SDS011;41709;52.536;5.688;2022-07-01T11:24:16;1.35;;;0.40;;
55784;SDS011;41709;52.536;5.688;2022-07-01T11:26:42;2.58;;;0.88;;
55784;SDS011;41709;52.536;5.688;2022-07-01T11:29:12;3.13;;;0.57;;
55784;SDS011;41709;52.536;5.688;2022-07-01T11:31:38;3.53;;;1.33;;
55784;SDS011;41709;52.536;5.688;2022-07-01T11:34:04;2.53;;;0.50;;
55784;SDS011;41709;52.536;5.688;2022-07-01T11:36:30;3.00;;;0.82;;
55784;SDS011;41709;52.536;5.688;2022-07-01T11:39:19;2.60;;;0.70;;
55784;SDS011;41709;52.536;5.688;2022-07-01T11:41:52;2.00;;;0.60;;
55784;SDS011;41709;52.536;5.688;2022-07-01T11:44:31;4.30;;;0.93;;
55784;SDS011;41709;52.536;5.688;2022-07-01T11:46:59;4.18;;;0.65;;
55784;SDS011;41709;52.536;5.688;2022-07-01T11:49:25;1.85;;;0.60;;
55784;SDS011;41709;52.536;5.688;2022-07-01T11:51:58;3.55;;;0.57;;
55784;SDS011;41709;52.536;5.688;2022-07-01T11:54:25;4.57;;;0.70;;
55784;SDS011;41709;52.536;5.688;2022-07-01T11:56:50;3.13;;;0.73;;
55784;SDS011;41709;52.536;5.688;2022-07-01T11:59:17;6.35;;;1.45;;
55784;SDS011;41709;52.536;5.688;2022-07-01T12:01:49;2.95;;;0.70;;
55784;SDS011;41709;52.536;5.688;2022-07-01T12:04:17;4.72;;;1.20;;
55784;SDS011;41709;52.536;5.688;2022-07-01T12:06:43;4.22;;;0.73;;
55784;SDS011;41709;52.536;5.688;2022-07-01T12:09:13;3.38;;;0.85;;
55784;SDS011;41709;52.536;5.688;2022-07-01T12:11:40;5.03;;;1.00;;
55784;SDS011;41709;52.536;5.688;2022-07-01T12:14:23;1.85;;;0.95;;
55784;SDS011;41709;52.536;5.688;2022-07-01T12:16:51;2.30;;;0.60;;
55784;SDS011;41709;52.536;5.688;2022-07-01T12:19:18;3.78;;;0.88;;
55784;SDS011;41709;52.536;5.688;2022-07-01T12:21:48;4.40;;;0.80;;
55784;SDS011;41709;52.536;5.688;2022-07-01T12:24:15;2.70;;;0.75;;
55784;SDS011;41709;52.536;5.688;2022-07-01T12:26:50;2.07;;;0.90;;
55784;SDS011;41709;52.536;5.688;2022-07-01T12:29:18;4.07;;;1.23;;
55784;SDS011;41709;52.536;5.688;2022-07-01T12:31:54;5.28;;;1.25;;
55784;SDS011;41709;52.536;5.688;2022-07-01T12:34:58;3.00;;;0.43;;
55784;SDS011;41709;52.536;5.688;2022-07-01T12:37:25;3.22;;;0.60;;
55784;SDS011;41709;52.536;5.688;2022-07-01T12:39:59;4.03;;;0.60;;
55784;SDS011;41709;52.536;5.688;2022-07-01T12:45:03;6.68;;;1.08;;
55784;SDS011;41709;52.536;5.688;2022-07-01T12:47:32;2.65;;;0.80;;
55784;SDS011;41709;52.536;5.688;2022-07-01T12:50:18;3.75;;;1.00;;
55784;SDS011;41709;52.536;5.688;2022-07-01T12:53:01;9.00;;;2.13;;
55784;SDS011;41709;52.536;5.688;2022-07-01T12:55:28;7.55;;;1.42;;
55784;SDS011;41709;52.536;5.688;2022-07-01T12:58:00;5.05;;;0.70;;
55784;SDS011;41709;52.536;5.688;2022-07-01T13:00:28;1.63;;;0.70;;
55784;SDS011;41709;52.536;5.688;2022-07-01T13:02:55;3.63;;;0.98;;
55784;SDS011;41709;52.536;5.688;2022-07-01T13:05:23;1.60;;;0.57;;
55784;SDS011;41709;52.536;5.688;2022-07-01T13:07:49;7.10;;;0.93;;
55784;SDS011;41709;52.536;5.688;2022-07-01T13:10:15;1.88;;;0.68;;
55784;SDS011;41709;52.536;5.688;2022-07-01T13:12:42;3.90;;;0.80;;
55784;SDS011;41709;52.536;5.688;2022-07-01T13:15:12;4.45;;;0.63;;
55784;SDS011;41709;52.536;5.688;2022-07-01T13:17:39;4.47;;;0.60;;
55784;SDS011;41709;52.536;5.688;2022-07-01T13:20:05;8.98;;;0.85;;
55784;SDS011;41709;52.536;5.688;2022-07-01T13:22:32;3.17;;;0.82;;
55784;SDS011;41709;52.536;5.688;2022-07-01T13:24:58;3.63;;;0.80;;
55784;SDS011;41709;52.536;5.688;2022-07-01T13:27:24;4.38;;;0.73;;
55784;SDS011;41709;52.536;5.688;2022-07-01T13:29:49;5.82;;;1.10;;
55784;SDS011;41709;52.536;5.688;2022-07-01T13:32:15;2.35;;;0.80;;
55784;SDS011;41709;52.536;5.688;2022-07-01T13:34:41;2.78;;;0.75;;
55784;SDS011;41709;52.536;5.688;2022-07-01T13:37:07;5.18;;;1.05;;
55784;SDS011;41709;52.536;5.688;2022-07-01T13:39:32;3.22;;;0.80;;
55784;SDS011;41709;52.536;5.688;2022-07-01T13:41:58;2.45;;;0.70;;
55784;SDS011;41709;52.536;5.688;2022-07-01T13:44:24;6.30;;;1.10;;
55784;SDS011;41709;52.536;5.688;2022-07-01T13:46:49;3.58;;;0.90;;
55784;SDS011;41709;52.536;5.688;2022-07-01T13:49:15;6.72;;;1.20;;
55784;SDS011;41709;52.536;5.688;2022-07-01T13:51:41;4.53;;;0.88;;
55784;SDS011;41709;52.536;5.688;2022-07-01T13:54:06;3.03;;;1.00;;
55784;SDS011;41709;52.536;5.688;2022-07-01T13:56:32;7.03;;;1.40;;
55784;SDS011;41709;52.536;5.688;2022-07-01T13:58:58;4.22;;;0.82;;
55784;SDS011;41709;52.536;5.688;2022-07-01T14:01:23;6.13;;;1.10;;
55784;SDS011;41709;52.536;5.688;2022-07-01T14:03:49;4.20;;;0.65;;
55784;SDS011;41709;52.536;5.688;2022-07-01T14:06:17;5.53;;;1.50;;
55784;SDS011;41709;52.536;5.688;2022-07-01T14:08:43;2.47;;;0.80;;
55784;SDS011;41709;52.536;5.688;2022-07-01T14:11:09;2.20;;;0.65;;
55784;SDS011;41709;52.536;5.688;2022-07-01T14:13:35;2.55;;;0.60;;
55784;SDS011;41709;52.536;5.688;2022-07-01T14:16:01;4.93;;;0.90;;
55784;SDS011;41709;52.536;5.688;2022-07-01T14:18:27;4.90;;;0.90;;
55784;SDS011;41709;52.536;5.688;2022-07-01T14:20:53;1.75;;;0.47;;
55784;SDS011;41709;52.536;5.688;2022-07-01T14:23:19;3.15;;;0.90;;
55784;SDS011;41709;52.536;5.688;2022-07-01T14:25:44;2.10;;;0.40;;
55784;SDS011;41709;52.536;5.688;2022-07-01T14:28:10;2.55;;;0.60;;
55784;SDS011;41709;52.536;5.688;2022-07-01T14:30:37;1.30;;;0.40;;
55784;SDS011;41709;52.536;5.688;2022-07-01T14:33:03;3.15;;;0.52;;
55784;SDS011;41709;52.536;5.688;2022-07-01T14:35:28;3.40;;;0.50;;
55784;SDS011;41709;52.536;5.688;2022-07-01T14:37:54;5.15;;;1.13;;
55784;SDS011;41709;52.536;5.688;2022-07-01T14:40:20;2.17;;;0.47;;
55784;SDS011;41709;52.536;5.688;2022-07-01T14:42:45;1.70;;;0.60;;
55784;SDS011;41709;52.536;5.688;2022-07-01T14:45:12;2.47;;;0.40;;
55784;SDS011;41709;52.536;5.688;2022-07-01T14:47:39;3.40;;;0.43;;
55784;SDS011;41709;52.536;5.688;2022-07-01T14:50:05;1.98;;;0.43;;
55784;SDS011;41709;52.536;5.688;2022-07-01T14:52:32;4.25;;;0.52;;
55784;SDS011;41709;52.536;5.688;2022-07-01T14:54:58;1.63;;;0.38;;
55784;SDS011;41709;52.536;5.688;2022-07-01T14:57:23;1.90;;;0.50;;
55784;SDS011;41709;52.536;5.688;2022-07-01T14:59:49;2.75;;;0.52;;
55784;SDS011;41709;52.536;5.688;2022-07-01T15:02:15;2.60;;;0.50;;
55784;SDS011;41709;52.536;5.688;2022-07-01T15:04:41;2.90;;;0.85;;
55784;SDS011;41709;52.536;5.688;2022-07-01T15:07:06;2.88;;;0.50;;
55784;SDS011;41709;52.536;5.688;2022-07-01T15:09:32;3.25;;;0.63;;